Airfield :
LOGIN :

Register | Disclaimer

   EN    FR    IT 

 










Legend :    VFR   Marginal VFR   IFR   Intensive IFR   Very Intensive IFR
Visi :
Ceiling :
>= 8 km
>= 3000ft
5 to 8 km
1000 to 3000 ft
1500m to 5 km
500 to 1000 ft
800 to 1500m
200 to 500 ft
< 800m
< 200 ft
Symbols :   Thunderstorms  Fog  Heavy snow  Heavy precipitations  Wind > 20 kt
SIGMETs :     Misc.  Thunderstorms  Icing  Turbulence  Mountain Waves  Volcanic Ashes






- Airport Elevation : 408 ft
- IATA code : FKB


EDSB - Karlsruhe Baden Baden

CURRENT METAR :
  • 102350Z AUTO 06003KT 9999 // FEW001/// M03/M04 Q1021

EXPIRED METARs :
  • 102320Z AUTO 00000KT 9999 // FEW180/// M03/M03 Q1021
  • 102250Z AUTO 00000KT 9999 // FEW180/// M02/M03 Q1021
  • 102220Z AUTO 00000KT 8000 // BKN180/// M02/M02 Q1022
  • 102150Z VRB01KT CAVOK M02/M03 Q1022
  • 102120Z VRB01KT CAVOK M02/M03 Q1022

TAF TAF EDSB
Valid from the 10 at 18:00 until the 11 at 18:00 UTC


101700Z 1018/1118 VRB03KT CAVOK
PROB30
TEMPO 1022/1105 2000 BCFG
PROB30
TEMPO 1106/1109 -FZRA
TEMPO 1109/1118 RA
BECMG 1112/1115 21008KT



MET'MAP, your aeronautical weather chart ! - Copyright ORBIFLY December 2007 - Disclaimer

ORBIFLY MET'MAP TEAM :

Programming & Development : Alexandra Zaïnal
Concept & original design : Baudouin d'Aumeries
Assistance for programming : Marc-Olivier Méhu
Technical & hardware support : Manuel Goepfert

Contact : metmap@orbifly.com




SOURCES & CREDITS :

   NOAA